sensor_id;sensor_type;location;lat;lon;timestamp;P1;durP1;ratioP1;P2;durP2;ratioP2
47167;SDS011;32931;47.778;17.806;2023-08-21T00:00:25;16.60;;;11.15;;
47167;SDS011;32931;47.778;17.806;2023-08-21T00:02:51;17.77;;;12.18;;
47167;SDS011;32931;47.778;17.806;2023-08-21T00:05:18;26.60;;;11.85;;
47167;SDS011;32931;47.778;17.806;2023-08-21T00:07:44;16.35;;;11.35;;
47167;SDS011;32931;47.778;17.806;2023-08-21T00:10:11;20.88;;;12.15;;
47167;SDS011;32931;47.778;17.806;2023-08-21T00:12:39;20.20;;;12.38;;
47167;SDS011;32931;47.778;17.806;2023-08-21T00:15:05;17.92;;;11.95;;
47167;SDS011;32931;47.778;17.806;2023-08-21T00:17:32;14.52;;;11.38;;
47167;SDS011;32931;47.778;17.806;2023-08-21T00:19:58;16.38;;;11.98;;
47167;SDS011;32931;47.778;17.806;2023-08-21T00:22:24;18.50;;;11.52;;
47167;SDS011;32931;47.778;17.806;2023-08-21T00:24:50;16.67;;;11.20;;
47167;SDS011;32931;47.778;17.806;2023-08-21T00:27:16;14.77;;;11.15;;
47167;SDS011;32931;47.778;17.806;2023-08-21T00:29:43;19.58;;;11.43;;
47167;SDS011;32931;47.778;17.806;2023-08-21T00:32:09;17.33;;;12.00;;
47167;SDS011;32931;47.778;17.806;2023-08-21T00:34:37;15.68;;;10.52;;
47167;SDS011;32931;47.778;17.806;2023-08-21T00:37:03;15.50;;;10.95;;
47167;SDS011;32931;47.778;17.806;2023-08-21T00:39:29;13.82;;;10.50;;
47167;SDS011;32931;47.778;17.806;2023-08-21T00:41:56;15.88;;;11.40;;
47167;SDS011;32931;47.778;17.806;2023-08-21T00:44:22;12.68;;;10.32;;
47167;SDS011;32931;47.778;17.806;2023-08-21T00:46:48;24.15;;;10.98;;
47167;SDS011;32931;47.778;17.806;2023-08-21T00:49:14;17.80;;;11.50;;
47167;SDS011;32931;47.778;17.806;2023-08-21T00:51:40;16.02;;;11.35;;
47167;SDS011;32931;47.778;17.806;2023-08-21T00:54:06;20.42;;;11.30;;
47167;SDS011;32931;47.778;17.806;2023-08-21T00:56:33;21.23;;;11.35;;
47167;SDS011;32931;47.778;17.806;2023-08-21T00:58:59;17.20;;;11.15;;
47167;SDS011;32931;47.778;17.806;2023-08-21T01:01:25;20.90;;;11.63;;
47167;SDS011;32931;47.778;17.806;2023-08-21T01:03:52;18.92;;;12.55;;
47167;SDS011;32931;47.778;17.806;2023-08-21T01:06:19;17.98;;;12.00;;
47167;SDS011;32931;47.778;17.806;2023-08-21T01:08:48;21.20;;;12.35;;
47167;SDS011;32931;47.778;17.806;2023-08-21T01:11:21;20.50;;;11.93;;
47167;SDS011;32931;47.778;17.806;2023-08-21T01:16:55;20.80;;;11.70;;
47167;SDS011;32931;47.778;17.806;2023-08-21T01:19:26;16.23;;;11.50;;
47167;SDS011;32931;47.778;17.806;2023-08-21T01:22:00;17.10;;;11.25;;
47167;SDS011;32931;47.778;17.806;2023-08-21T01:24:27;18.65;;;11.40;;
47167;SDS011;32931;47.778;17.806;2023-08-21T01:26:53;19.95;;;12.13;;
47167;SDS011;32931;47.778;17.806;2023-08-21T01:29:19;22.25;;;11.50;;
47167;SDS011;32931;47.778;17.806;2023-08-21T01:31:47;19.35;;;11.32;;
47167;SDS011;32931;47.778;17.806;2023-08-21T01:34:35;20.98;;;11.80;;
47167;SDS011;32931;47.778;17.806;2023-08-21T01:37:03;14.63;;;11.32;;
47167;SDS011;32931;47.778;17.806;2023-08-21T01:39:31;21.67;;;10.88;;
47167;SDS011;32931;47.778;17.806;2023-08-21T01:41:57;16.50;;;11.50;;
47167;SDS011;32931;47.778;17.806;2023-08-21T01:44:24;16.45;;;11.50;;
47167;SDS011;32931;47.778;17.806;2023-08-21T01:46:52;17.17;;;11.13;;
47167;SDS011;32931;47.778;17.806;2023-08-21T01:49:19;20.58;;;11.00;;
47167;SDS011;32931;47.778;17.806;2023-08-21T01:51:45;14.48;;;11.05;;
47167;SDS011;32931;47.778;17.806;2023-08-21T01:54:12;19.45;;;11.68;;
47167;SDS011;32931;47.778;17.806;2023-08-21T01:56:38;25.05;;;11.57;;
47167;SDS011;32931;47.778;17.806;2023-08-21T01:59:04;14.05;;;11.35;;
47167;SDS011;32931;47.778;17.806;2023-08-21T02:01:32;17.73;;;11.25;;
47167;SDS011;32931;47.778;17.806;2023-08-21T02:03:58;25.52;;;11.38;;
47167;SDS011;32931;47.778;17.806;2023-08-21T02:06:24;20.45;;;10.98;;
47167;SDS011;32931;47.778;17.806;2023-08-21T02:08:51;18.65;;;10.60;;
47167;SDS011;32931;47.778;17.806;2023-08-21T02:11:17;14.32;;;11.02;;
47167;SDS011;32931;47.778;17.806;2023-08-21T02:13:43;14.68;;;10.93;;
47167;SDS011;32931;47.778;17.806;2023-08-21T02:16:10;33.47;;;11.27;;
47167;SDS011;32931;47.778;17.806;2023-08-21T02:18:36;15.48;;;10.30;;
47167;SDS011;32931;47.778;17.806;2023-08-21T02:21:02;17.77;;;10.80;;
47167;SDS011;32931;47.778;17.806;2023-08-21T02:23:28;22.13;;;11.38;;
47167;SDS011;32931;47.778;17.806;2023-08-21T02:25:55;22.60;;;10.73;;
47167;SDS011;32931;47.778;17.806;2023-08-21T02:28:21;17.90;;;11.75;;
47167;SDS011;32931;47.778;17.806;2023-08-21T02:30:47;19.75;;;11.30;;
47167;SDS011;32931;47.778;17.806;2023-08-21T02:33:13;13.60;;;10.77;;
47167;SDS011;32931;47.778;17.806;2023-08-21T02:35:39;17.67;;;10.38;;
47167;SDS011;32931;47.778;17.806;2023-08-21T02:38:06;17.67;;;11.23;;
47167;SDS011;32931;47.778;17.806;2023-08-21T02:40:32;19.05;;;11.07;;
47167;SDS011;32931;47.778;17.806;2023-08-21T02:42:58;19.25;;;11.85;;
47167;SDS011;32931;47.778;17.806;2023-08-21T02:45:24;19.08;;;11.30;;
47167;SDS011;32931;47.778;17.806;2023-08-21T02:47:50;13.98;;;10.52;;
47167;SDS011;32931;47.778;17.806;2023-08-21T02:50:16;16.08;;;11.05;;
47167;SDS011;32931;47.778;17.806;2023-08-21T02:52:42;14.55;;;10.27;;
47167;SDS011;32931;47.778;17.806;2023-08-21T02:55:09;18.15;;;10.85;;
47167;SDS011;32931;47.778;17.806;2023-08-21T02:57:35;22.60;;;11.00;;
47167;SDS011;32931;47.778;17.806;2023-08-21T03:00:01;26.33;;;12.18;;
47167;SDS011;32931;47.778;17.806;2023-08-21T03:02:28;17.80;;;12.02;;
47167;SDS011;32931;47.778;17.806;2023-08-21T03:04:54;17.02;;;11.50;;
47167;SDS011;32931;47.778;17.806;2023-08-21T03:07:20;18.38;;;11.23;;
47167;SDS011;32931;47.778;17.806;2023-08-21T03:09:46;16.52;;;10.98;;
47167;SDS011;32931;47.778;17.806;2023-08-21T03:12:13;14.77;;;10.32;;
47167;SDS011;32931;47.778;17.806;2023-08-21T03:14:39;18.45;;;11.05;;
47167;SDS011;32931;47.778;17.806;2023-08-21T03:17:06;17.90;;;11.55;;
47167;SDS011;32931;47.778;17.806;2023-08-21T03:19:32;21.92;;;11.00;;
47167;SDS011;32931;47.778;17.806;2023-08-21T03:21:58;14.65;;;10.93;;
47167;SDS011;32931;47.778;17.806;2023-08-21T03:24:24;17.08;;;10.90;;
47167;SDS011;32931;47.778;17.806;2023-08-21T03:26:51;16.73;;;11.05;;
47167;SDS011;32931;47.778;17.806;2023-08-21T03:29:17;17.08;;;11.60;;
47167;SDS011;32931;47.778;17.806;2023-08-21T03:31:43;20.02;;;11.70;;
47167;SDS011;32931;47.778;17.806;2023-08-21T03:34:11;16.00;;;10.82;;
47167;SDS011;32931;47.778;17.806;2023-08-21T03:36:38;20.33;;;12.00;;
47167;SDS011;32931;47.778;17.806;2023-08-21T03:39:04;12.65;;;11.07;;
47167;SDS011;32931;47.778;17.806;2023-08-21T03:41:31;14.98;;;10.57;;
47167;SDS011;32931;47.778;17.806;2023-08-21T03:43:57;17.25;;;11.20;;
47167;SDS011;32931;47.778;17.806;2023-08-21T03:46:23;17.23;;;11.48;;
47167;SDS011;32931;47.778;17.806;2023-08-21T03:48:50;16.88;;;11.77;;
47167;SDS011;32931;47.778;17.806;2023-08-21T03:51:16;13.77;;;10.25;;
47167;SDS011;32931;47.778;17.806;2023-08-21T03:53:43;22.58;;;12.20;;
47167;SDS011;32931;47.778;17.806;2023-08-21T03:56:09;19.45;;;12.00;;
47167;SDS011;32931;47.778;17.806;2023-08-21T03:58:35;16.27;;;11.68;;
47167;SDS011;32931;47.778;17.806;2023-08-21T04:01:01;16.35;;;10.43;;
47167;SDS011;32931;47.778;17.806;2023-08-21T04:03:27;18.73;;;9.50;;
47167;SDS011;32931;47.778;17.806;2023-08-21T04:05:54;16.13;;;8.95;;
47167;SDS011;32931;47.778;17.806;2023-08-21T04:08:22;19.77;;;9.35;;
47167;SDS011;32931;47.778;17.806;2023-08-21T04:10:48;9.68;;;7.72;;
47167;SDS011;32931;47.778;17.806;2023-08-21T04:13:14;16.08;;;8.00;;
47167;SDS011;32931;47.778;17.806;2023-08-21T04:15:49;15.77;;;8.68;;
47167;SDS011;32931;47.778;17.806;2023-08-21T04:18:16;17.35;;;9.32;;
47167;SDS011;32931;47.778;17.806;2023-08-21T04:20:42;16.42;;;10.35;;
47167;SDS011;32931;47.778;17.806;2023-08-21T04:23:08;15.43;;;9.60;;
47167;SDS011;32931;47.778;17.806;2023-08-21T04:25:34;16.08;;;9.52;;
47167;SDS011;32931;47.778;17.806;2023-08-21T04:28:00;20.27;;;10.27;;
47167;SDS011;32931;47.778;17.806;2023-08-21T04:30:27;13.02;;;9.70;;
47167;SDS011;32931;47.778;17.806;2023-08-21T04:32:53;28.23;;;9.68;;
47167;SDS011;32931;47.778;17.806;2023-08-21T04:35:19;18.17;;;10.73;;
47167;SDS011;32931;47.778;17.806;2023-08-21T04:37:48;18.75;;;10.57;;
47167;SDS011;32931;47.778;17.806;2023-08-21T04:40:14;15.90;;;11.10;;
47167;SDS011;32931;47.778;17.806;2023-08-21T04:42:43;22.48;;;10.98;;
47167;SDS011;32931;47.778;17.806;2023-08-21T04:45:09;14.20;;;11.32;;
47167;SDS011;32931;47.778;17.806;2023-08-21T04:47:35;15.52;;;11.40;;
47167;SDS011;32931;47.778;17.806;2023-08-21T04:50:02;17.23;;;11.98;;
47167;SDS011;32931;47.778;17.806;2023-08-21T04:52:28;15.35;;;11.93;;
47167;SDS011;32931;47.778;17.806;2023-08-21T04:54:54;17.60;;;12.23;;
47167;SDS011;32931;47.778;17.806;2023-08-21T04:57:20;16.40;;;11.30;;
47167;SDS011;32931;47.778;17.806;2023-08-21T04:59:47;21.05;;;12.52;;
47167;SDS011;32931;47.778;17.806;2023-08-21T05:02:13;17.65;;;12.40;;
47167;SDS011;32931;47.778;17.806;2023-08-21T05:04:40;18.40;;;12.38;;
47167;SDS011;32931;47.778;17.806;2023-08-21T05:07:06;19.70;;;12.55;;
47167;SDS011;32931;47.778;17.806;2023-08-21T05:09:32;19.27;;;13.20;;
47167;SDS011;32931;47.778;17.806;2023-08-21T05:11:59;15.95;;;13.25;;
47167;SDS011;32931;47.778;17.806;2023-08-21T05:14:25;21.60;;;13.68;;
47167;SDS011;32931;47.778;17.806;2023-08-21T05:16:51;20.95;;;12.48;;
47167;SDS011;32931;47.778;17.806;2023-08-21T05:19:17;17.38;;;12.93;;
47167;SDS011;32931;47.778;17.806;2023-08-21T05:21:44;16.95;;;13.63;;
47167;SDS011;32931;47.778;17.806;2023-08-21T05:24:11;18.20;;;13.52;;
47167;SDS011;32931;47.778;17.806;2023-08-21T05:26:37;23.60;;;13.10;;
47167;SDS011;32931;47.778;17.806;2023-08-21T05:29:04;18.65;;;13.68;;
47167;SDS011;32931;47.778;17.806;2023-08-21T05:31:30;19.60;;;14.40;;
47167;SDS011;32931;47.778;17.806;2023-08-21T05:33:56;17.50;;;12.63;;
47167;SDS011;32931;47.778;17.806;2023-08-21T05:36:22;20.80;;;13.82;;
47167;SDS011;32931;47.778;17.806;2023-08-21T05:38:49;20.98;;;14.00;;
47167;SDS011;32931;47.778;17.806;2023-08-21T05:41:16;31.75;;;13.07;;
47167;SDS011;32931;47.778;17.806;2023-08-21T05:43:43;24.15;;;13.48;;
47167;SDS011;32931;47.778;17.806;2023-08-21T05:46:11;20.95;;;13.45;;
47167;SDS011;32931;47.778;17.806;2023-08-21T05:48:37;22.45;;;13.73;;
47167;SDS011;32931;47.778;17.806;2023-08-21T05:51:03;34.28;;;14.82;;
47167;SDS011;32931;47.778;17.806;2023-08-21T05:53:30;20.35;;;14.02;;
47167;SDS011;32931;47.778;17.806;2023-08-21T05:55:56;22.15;;;14.40;;
47167;SDS011;32931;47.778;17.806;2023-08-21T05:58:23;20.88;;;13.90;;
47167;SDS011;32931;47.778;17.806;2023-08-21T06:00:49;23.77;;;15.32;;
47167;SDS011;32931;47.778;17.806;2023-08-21T06:03:15;21.95;;;13.98;;
47167;SDS011;32931;47.778;17.806;2023-08-21T06:05:41;24.52;;;14.07;;
47167;SDS011;32931;47.778;17.806;2023-08-21T06:08:09;23.23;;;15.23;;
47167;SDS011;32931;47.778;17.806;2023-08-21T06:10:35;17.42;;;13.48;;
47167;SDS011;32931;47.778;17.806;2023-08-21T06:13:01;17.40;;;14.38;;
47167;SDS011;32931;47.778;17.806;2023-08-21T06:15:27;25.90;;;14.43;;
47167;SDS011;32931;47.778;17.806;2023-08-21T06:17:54;25.20;;;14.75;;
47167;SDS011;32931;47.778;17.806;2023-08-21T06:20:20;21.55;;;14.18;;
47167;SDS011;32931;47.778;17.806;2023-08-21T06:22:46;22.75;;;14.50;;
47167;SDS011;32931;47.778;17.806;2023-08-21T06:25:12;17.08;;;14.32;;
47167;SDS011;32931;47.778;17.806;2023-08-21T06:27:39;17.20;;;14.70;;
47167;SDS011;32931;47.778;17.806;2023-08-21T06:30:05;19.08;;;14.85;;
47167;SDS011;32931;47.778;17.806;2023-08-21T06:32:32;20.50;;;14.25;;
47167;SDS011;32931;47.778;17.806;2023-08-21T06:34:58;20.00;;;14.68;;
47167;SDS011;32931;47.778;17.806;2023-08-21T06:37:24;22.75;;;14.82;;
47167;SDS011;32931;47.778;17.806;2023-08-21T06:39:51;20.67;;;14.65;;
47167;SDS011;32931;47.778;17.806;2023-08-21T06:42:18;24.90;;;15.02;;
47167;SDS011;32931;47.778;17.806;2023-08-21T06:44:44;19.73;;;14.23;;
47167;SDS011;32931;47.778;17.806;2023-08-21T06:47:10;17.52;;;14.23;;
47167;SDS011;32931;47.778;17.806;2023-08-21T06:49:36;24.35;;;13.63;;
47167;SDS011;32931;47.778;17.806;2023-08-21T06:52:02;25.20;;;15.35;;
47167;SDS011;32931;47.778;17.806;2023-08-21T06:54:29;18.90;;;14.38;;
47167;SDS011;32931;47.778;17.806;2023-08-21T06:56:55;17.20;;;14.00;;
47167;SDS011;32931;47.778;17.806;2023-08-21T06:59:21;20.17;;;14.02;;
47167;SDS011;32931;47.778;17.806;2023-08-21T07:01:47;21.02;;;13.70;;
47167;SDS011;32931;47.778;17.806;2023-08-21T07:04:13;18.40;;;13.07;;
47167;SDS011;32931;47.778;17.806;2023-08-21T07:06:39;17.63;;;14.00;;
47167;SDS011;32931;47.778;17.806;2023-08-21T07:09:06;21.10;;;14.18;;
47167;SDS011;32931;47.778;17.806;2023-08-21T07:11:32;22.88;;;12.95;;
47167;SDS011;32931;47.778;17.806;2023-08-21T07:13:58;19.90;;;13.43;;
47167;SDS011;32931;47.778;17.806;2023-08-21T07:16:24;17.08;;;13.35;;
47167;SDS011;32931;47.778;17.806;2023-08-21T07:18:51;21.20;;;13.27;;
47167;SDS011;32931;47.778;17.806;2023-08-21T07:21:18;24.58;;;13.95;;
47167;SDS011;32931;47.778;17.806;2023-08-21T07:23:44;21.48;;;12.15;;
47167;SDS011;32931;47.778;17.806;2023-08-21T07:26:10;25.80;;;12.45;;
47167;SDS011;32931;47.778;17.806;2023-08-21T07:28:36;20.02;;;11.95;;
47167;SDS011;32931;47.778;17.806;2023-08-21T07:31:03;17.25;;;11.50;;
47167;SDS011;32931;47.778;17.806;2023-08-21T07:33:29;22.95;;;11.70;;
47167;SDS011;32931;47.778;17.806;2023-08-21T07:36:02;18.02;;;12.13;;
47167;SDS011;32931;47.778;17.806;2023-08-21T07:38:29;19.42;;;12.60;;
47167;SDS011;32931;47.778;17.806;2023-08-21T07:41:02;18.80;;;11.30;;
47167;SDS011;32931;47.778;17.806;2023-08-21T07:43:33;16.10;;;11.40;;
47167;SDS011;32931;47.778;17.806;2023-08-21T07:46:05;22.60;;;10.63;;
47167;SDS011;32931;47.778;17.806;2023-08-21T07:48:33;21.48;;;11.40;;
47167;SDS011;32931;47.778;17.806;2023-08-21T07:51:00;19.05;;;10.57;;
47167;SDS011;32931;47.778;17.806;2023-08-21T07:53:26;21.70;;;10.95;;
47167;SDS011;32931;47.778;17.806;2023-08-21T07:55:53;20.40;;;10.07;;
47167;SDS011;32931;47.778;17.806;2023-08-21T07:58:19;20.08;;;10.88;;
47167;SDS011;32931;47.778;17.806;2023-08-21T08:00:45;23.80;;;10.13;;
47167;SDS011;32931;47.778;17.806;2023-08-21T08:03:11;15.50;;;10.50;;
47167;SDS011;32931;47.778;17.806;2023-08-21T08:05:40;23.40;;;11.30;;
47167;SDS011;32931;47.778;17.806;2023-08-21T08:08:08;16.38;;;11.43;;
47167;SDS011;32931;47.778;17.806;2023-08-21T08:10:38;18.08;;;11.50;;
47167;SDS011;32931;47.778;17.806;2023-08-21T08:13:05;15.10;;;11.10;;
47167;SDS011;32931;47.778;17.806;2023-08-21T08:15:31;19.25;;;11.43;;
47167;SDS011;32931;47.778;17.806;2023-08-21T08:17:59;17.17;;;11.85;;
47167;SDS011;32931;47.778;17.806;2023-08-21T08:20:26;18.73;;;12.10;;
47167;SDS011;32931;47.778;17.806;2023-08-21T08:22:52;17.45;;;12.52;;
47167;SDS011;32931;47.778;17.806;2023-08-21T08:25:18;14.85;;;12.85;;
47167;SDS011;32931;47.778;17.806;2023-08-21T08:27:44;18.13;;;11.75;;
47167;SDS011;32931;47.778;17.806;2023-08-21T08:30:10;15.05;;;11.63;;
47167;SDS011;32931;47.778;17.806;2023-08-21T08:32:37;16.95;;;11.60;;
47167;SDS011;32931;47.778;17.806;2023-08-21T08:35:03;19.35;;;12.02;;
47167;SDS011;32931;47.778;17.806;2023-08-21T08:37:29;17.40;;;11.23;;
47167;SDS011;32931;47.778;17.806;2023-08-21T08:39:55;16.20;;;11.23;;
47167;SDS011;32931;47.778;17.806;2023-08-21T08:42:22;17.50;;;11.07;;
47167;SDS011;32931;47.778;17.806;2023-08-21T08:44:48;22.83;;;11.25;;
47167;SDS011;32931;47.778;17.806;2023-08-21T08:47:15;16.45;;;10.50;;
47167;SDS011;32931;47.778;17.806;2023-08-21T08:49:42;15.77;;;10.13;;
47167;SDS011;32931;47.778;17.806;2023-08-21T08:52:09;20.90;;;10.68;;
47167;SDS011;32931;47.778;17.806;2023-08-21T08:54:36;18.65;;;10.88;;
47167;SDS011;32931;47.778;17.806;2023-08-21T08:57:03;13.55;;;9.95;;
47167;SDS011;32931;47.778;17.806;2023-08-21T08:59:30;17.20;;;9.70;;
47167;SDS011;32931;47.778;17.806;2023-08-21T09:01:57;17.58;;;9.90;;
47167;SDS011;32931;47.778;17.806;2023-08-21T09:04:23;13.85;;;9.38;;
47167;SDS011;32931;47.778;17.806;2023-08-21T09:06:49;15.75;;;9.27;;
47167;SDS011;32931;47.778;17.806;2023-08-21T09:09:15;14.20;;;9.90;;
47167;SDS011;32931;47.778;17.806;2023-08-21T09:11:42;15.45;;;10.70;;
47167;SDS011;32931;47.778;17.806;2023-08-21T09:14:11;14.68;;;9.90;;
47167;SDS011;32931;47.778;17.806;2023-08-21T09:16:37;20.85;;;10.25;;
47167;SDS011;32931;47.778;17.806;2023-08-21T09:19:03;19.40;;;10.00;;
47167;SDS011;32931;47.778;17.806;2023-08-21T09:21:29;19.13;;;10.48;;
47167;SDS011;32931;47.778;17.806;2023-08-21T09:23:59;19.35;;;10.20;;
47167;SDS011;32931;47.778;17.806;2023-08-21T09:26:30;13.18;;;9.10;;
47167;SDS011;32931;47.778;17.806;2023-08-21T09:28:58;18.83;;;10.00;;
47167;SDS011;32931;47.778;17.806;2023-08-21T09:31:31;15.15;;;9.35;;
47167;SDS011;32931;47.778;17.806;2023-08-21T09:33:59;11.75;;;9.02;;
47167;SDS011;32931;47.778;17.806;2023-08-21T09:36:27;11.73;;;9.20;;
47167;SDS011;32931;47.778;17.806;2023-08-21T09:38:54;13.35;;;8.95;;
47167;SDS011;32931;47.778;17.806;2023-08-21T09:41:20;15.23;;;9.30;;
47167;SDS011;32931;47.778;17.806;2023-08-21T09:43:47;12.30;;;10.02;;
47167;SDS011;32931;47.778;17.806;2023-08-21T09:46:14;16.17;;;8.55;;
47167;SDS011;32931;47.778;17.806;2023-08-21T09:48:44;12.15;;;8.73;;
47167;SDS011;32931;47.778;17.806;2023-08-21T09:51:12;12.27;;;8.95;;
47167;SDS011;32931;47.778;17.806;2023-08-21T09:53:38;10.70;;;9.00;;
47167;SDS011;32931;47.778;17.806;2023-08-21T09:56:05;11.77;;;8.35;;
47167;SDS011;32931;47.778;17.806;2023-08-21T09:58:34;13.23;;;8.68;;
47167;SDS011;32931;47.778;17.806;2023-08-21T10:01:01;16.00;;;8.70;;
47167;SDS011;32931;47.778;17.806;2023-08-21T10:03:42;11.38;;;8.90;;
47167;SDS011;32931;47.778;17.806;2023-08-21T10:06:14;15.88;;;9.55;;
47167;SDS011;32931;47.778;17.806;2023-08-21T10:08:46;16.17;;;8.30;;
47167;SDS011;32931;47.778;17.806;2023-08-21T10:11:16;12.45;;;8.00;;
47167;SDS011;32931;47.778;17.806;2023-08-21T10:13:45;14.20;;;8.98;;
47167;SDS011;32931;47.778;17.806;2023-08-21T10:16:11;12.80;;;9.02;;
47167;SDS011;32931;47.778;17.806;2023-08-21T10:18:42;17.15;;;8.38;;
47167;SDS011;32931;47.778;17.806;2023-08-21T10:21:14;11.65;;;8.15;;
47167;SDS011;32931;47.778;17.806;2023-08-21T10:23:48;19.00;;;9.25;;
47167;SDS011;32931;47.778;17.806;2023-08-21T10:26:19;17.40;;;8.48;;
47167;SDS011;32931;47.778;17.806;2023-08-21T10:28:48;14.52;;;8.75;;
47167;SDS011;32931;47.778;17.806;2023-08-21T10:39:25;10.10;;;8.48;;
47167;SDS011;32931;47.778;17.806;2023-08-21T10:41:55;14.15;;;8.35;;
47167;SDS011;32931;47.778;17.806;2023-08-21T10:50:07;13.10;;;8.18;;
47167;SDS011;32931;47.778;17.806;2023-08-21T10:52:40;14.98;;;7.40;;
47167;SDS011;32931;47.778;17.806;2023-08-21T10:55:13;11.98;;;7.97;;
47167;SDS011;32931;47.778;17.806;2023-08-21T10:57:40;9.45;;;7.50;;
47167;SDS011;32931;47.778;17.806;2023-08-21T11:00:10;17.05;;;7.43;;
47167;SDS011;32931;47.778;17.806;2023-08-21T11:02:38;11.52;;;7.57;;
47167;SDS011;32931;47.778;17.806;2023-08-21T11:05:06;16.63;;;8.23;;
47167;SDS011;32931;47.778;17.806;2023-08-21T11:07:37;16.23;;;8.25;;
47167;SDS011;32931;47.778;17.806;2023-08-21T11:10:06;16.60;;;8.10;;
47167;SDS011;32931;47.778;17.806;2023-08-21T11:12:33;13.75;;;8.00;;
47167;SDS011;32931;47.778;17.806;2023-08-21T11:15:00;11.77;;;7.40;;
47167;SDS011;32931;47.778;17.806;2023-08-21T11:17:26;17.20;;;8.23;;
47167;SDS011;32931;47.778;17.806;2023-08-21T11:19:52;15.20;;;7.78;;
47167;SDS011;32931;47.778;17.806;2023-08-21T11:22:18;11.57;;;7.35;;
47167;SDS011;32931;47.778;17.806;2023-08-21T11:24:48;10.45;;;7.13;;
47167;SDS011;32931;47.778;17.806;2023-08-21T11:27:17;12.60;;;7.40;;
47167;SDS011;32931;47.778;17.806;2023-08-21T11:29:44;15.38;;;7.53;;
47167;SDS011;32931;47.778;17.806;2023-08-21T11:32:19;14.73;;;7.13;;
47167;SDS011;32931;47.778;17.806;2023-08-21T11:34:52;10.43;;;6.57;;
47167;SDS011;32931;47.778;17.806;2023-08-21T11:37:29;9.70;;;7.40;;
47167;SDS011;32931;47.778;17.806;2023-08-21T11:39:55;10.60;;;7.28;;
47167;SDS011;32931;47.778;17.806;2023-08-21T11:42:30;14.80;;;7.20;;
47167;SDS011;32931;47.778;17.806;2023-08-21T11:44:58;11.02;;;7.00;;
47167;SDS011;32931;47.778;17.806;2023-08-21T11:47:33;9.35;;;7.38;;
47167;SDS011;32931;47.778;17.806;2023-08-21T11:50:06;12.73;;;7.85;;
47167;SDS011;32931;47.778;17.806;2023-08-21T11:52:36;10.90;;;7.55;;
47167;SDS011;32931;47.778;17.806;2023-08-21T11:55:07;9.88;;;7.68;;
47167;SDS011;32931;47.778;17.806;2023-08-21T11:57:45;11.07;;;6.97;;
47167;SDS011;32931;47.778;17.806;2023-08-21T12:00:12;15.50;;;7.20;;
47167;SDS011;32931;47.778;17.806;2023-08-21T12:02:39;15.43;;;7.30;;
47167;SDS011;32931;47.778;17.806;2023-08-21T12:05:05;11.27;;;7.20;;
47167;SDS011;32931;47.778;17.806;2023-08-21T12:07:38;12.30;;;6.60;;
47167;SDS011;32931;47.778;17.806;2023-08-21T12:10:05;10.85;;;6.53;;
47167;SDS011;32931;47.778;17.806;2023-08-21T12:12:31;10.63;;;6.45;;
47167;SDS011;32931;47.778;17.806;2023-08-21T12:14:57;10.45;;;6.43;;
47167;SDS011;32931;47.778;17.806;2023-08-21T12:17:23;7.07;;;5.80;;
47167;SDS011;32931;47.778;17.806;2023-08-21T12:19:50;8.30;;;5.82;;
47167;SDS011;32931;47.778;17.806;2023-08-21T12:22:16;9.15;;;5.75;;
47167;SDS011;32931;47.778;17.806;2023-08-21T12:24:42;7.10;;;4.88;;
47167;SDS011;32931;47.778;17.806;2023-08-21T12:27:08;9.60;;;5.55;;
47167;SDS011;32931;47.778;17.806;2023-08-21T12:29:34;10.95;;;5.60;;
47167;SDS011;32931;47.778;17.806;2023-08-21T12:32:00;6.40;;;5.10;;
47167;SDS011;32931;47.778;17.806;2023-08-21T12:34:28;11.05;;;5.70;;
47167;SDS011;32931;47.778;17.806;2023-08-21T12:36:54;8.27;;;5.40;;
47167;SDS011;32931;47.778;17.806;2023-08-21T12:39:20;11.55;;;5.95;;
47167;SDS011;32931;47.778;17.806;2023-08-21T12:41:47;7.85;;;5.93;;
47167;SDS011;32931;47.778;17.806;2023-08-21T12:44:14;7.78;;;5.30;;
47167;SDS011;32931;47.778;17.806;2023-08-21T12:46:40;9.30;;;5.85;;
47167;SDS011;32931;47.778;17.806;2023-08-21T12:49:06;12.90;;;6.53;;
47167;SDS011;32931;47.778;17.806;2023-08-21T12:51:32;6.22;;;5.60;;
47167;SDS011;32931;47.778;17.806;2023-08-21T12:53:58;9.57;;;5.57;;
47167;SDS011;32931;47.778;17.806;2023-08-21T12:56:25;14.13;;;5.90;;
47167;SDS011;32931;47.778;17.806;2023-08-21T12:58:51;9.93;;;5.57;;
47167;SDS011;32931;47.778;17.806;2023-08-21T13:01:17;14.05;;;6.32;;
47167;SDS011;32931;47.778;17.806;2023-08-21T13:03:46;13.40;;;6.65;;
47167;SDS011;32931;47.778;17.806;2023-08-21T13:06:13;8.20;;;5.78;;
47167;SDS011;32931;47.778;17.806;2023-08-21T13:08:40;9.50;;;6.72;;
47167;SDS011;32931;47.778;17.806;2023-08-21T13:11:06;6.88;;;5.88;;
47167;SDS011;32931;47.778;17.806;2023-08-21T13:13:33;16.10;;;6.45;;
47167;SDS011;32931;47.778;17.806;2023-08-21T13:15:59;9.52;;;7.10;;
47167;SDS011;32931;47.778;17.806;2023-08-21T13:18:26;10.55;;;6.20;;
47167;SDS011;32931;47.778;17.806;2023-08-21T13:20:52;12.50;;;6.20;;
47167;SDS011;32931;47.778;17.806;2023-08-21T13:23:18;11.30;;;5.82;;
47167;SDS011;32931;47.778;17.806;2023-08-21T13:25:45;8.27;;;6.60;;
47167;SDS011;32931;47.778;17.806;2023-08-21T13:28:11;14.20;;;6.10;;
47167;SDS011;32931;47.778;17.806;2023-08-21T13:30:37;14.18;;;6.63;;
47167;SDS011;32931;47.778;17.806;2023-08-21T13:33:03;9.20;;;7.10;;
47167;SDS011;32931;47.778;17.806;2023-08-21T13:35:30;11.60;;;6.70;;
47167;SDS011;32931;47.778;17.806;2023-08-21T13:37:57;10.95;;;6.65;;
47167;SDS011;32931;47.778;17.806;2023-08-21T13:40:23;13.65;;;6.95;;
47167;SDS011;32931;47.778;17.806;2023-08-21T13:42:50;13.93;;;6.47;;
47167;SDS011;32931;47.778;17.806;2023-08-21T13:45:17;14.48;;;6.97;;
47167;SDS011;32931;47.778;17.806;2023-08-21T13:47:45;11.30;;;6.45;;
47167;SDS011;32931;47.778;17.806;2023-08-21T13:50:13;11.40;;;6.15;;
47167;SDS011;32931;47.778;17.806;2023-08-21T13:52:40;11.05;;;6.25;;
47167;SDS011;32931;47.778;17.806;2023-08-21T13:55:07;8.68;;;6.40;;
47167;SDS011;32931;47.778;17.806;2023-08-21T13:57:35;13.15;;;6.75;;
47167;SDS011;32931;47.778;17.806;2023-08-21T14:00:03;13.35;;;6.03;;
47167;SDS011;32931;47.778;17.806;2023-08-21T14:02:33;11.90;;;5.82;;
47167;SDS011;32931;47.778;17.806;2023-08-21T14:05:00;10.48;;;5.15;;
47167;SDS011;32931;47.778;17.806;2023-08-21T14:07:28;8.98;;;5.55;;
47167;SDS011;32931;47.778;17.806;2023-08-21T14:09:55;11.73;;;6.22;;
47167;SDS011;32931;47.778;17.806;2023-08-21T14:12:21;11.57;;;5.63;;
47167;SDS011;32931;47.778;17.806;2023-08-21T14:14:47;10.65;;;6.18;;
47167;SDS011;32931;47.778;17.806;2023-08-21T14:17:13;7.75;;;5.45;;
47167;SDS011;32931;47.778;17.806;2023-08-21T14:19:40;12.30;;;6.07;;
47167;SDS011;32931;47.778;17.806;2023-08-21T14:22:06;11.82;;;5.70;;
47167;SDS011;32931;47.778;17.806;2023-08-21T14:24:32;18.33;;;6.70;;
47167;SDS011;32931;47.778;17.806;2023-08-21T14:26:59;13.18;;;5.60;;
47167;SDS011;32931;47.778;17.806;2023-08-21T14:29:25;10.80;;;6.22;;